Time;durP1;ratioP1;P1;durP2;ratioP2;P2;SDS_P1;SDS_P2;PMS_P1;PMS_P2;Temp;Humidity;BMP_temperature;BMP_pressure;BME280_temperature;BME280_humidity;BME280_pressure;Samples;Min_cycle;Max_cycle;Signal;HPM_P1;HPM_P2
2023/09/18 00:01:39;;;;;;;17.02;14.35;;;;;;;16.82;76.70;95275.47;5055213;28;20029;-76
2023/09/18 00:04:05;;;;;;;17.48;14.35;;;;;;;17.02;75.68;95280.50;5071407;28;20506;-76
2023/09/18 00:06:31;;;;;;;16.38;14.35;;;;;;;16.88;75.92;95274.03;5055048;28;20025;-76
2023/09/18 00:08:56;;;;;;;17.20;15.07;;;;;;;16.93;75.97;95277.00;5054364;28;20103;-76
2023/09/18 00:11:22;;;;;;;17.73;15.82;;;;;;;16.93;75.84;95277.00;5038471;28;20021;-75
2023/09/18 00:13:47;;;;;;;18.02;16.13;;;;;;;16.93;75.79;95277.81;5071282;28;20112;-76
2023/09/18 00:16:12;;;;;;;18.67;16.73;;;;;;;16.67;76.72;95261.25;5071463;28;20032;-76
2023/09/18 00:18:38;;;;;;;18.73;16.83;;;;;;;16.77;76.13;95271.66;5071188;28;20036;-76
2023/09/18 00:21:04;;;;;;;19.27;17.27;;;;;;;16.71;76.53;95268.63;5037866;28;20067;-76
2023/09/18 00:23:29;;;;;;;19.92;17.20;;;;;;;16.49;77.30;95267.34;5054256;28;20082;-75
2023/09/18 00:25:55;;;;;;;19.80;17.73;;;;;;;16.41;77.69;95264.66;5072368;28;20040;-76
2023/09/18 00:28:20;;;;;;;18.90;16.90;;;;;;;16.61;76.58;95272.34;5054141;28;20486;-76
2023/09/18 00:30:49;;;;;;;19.13;17.15;;;;;;;16.70;75.92;95260.94;5054311;28;20058;-76
2023/09/18 00:33:15;;;;;;;18.98;16.98;;;;;;;16.62;76.27;95274.00;5054212;28;20024;-76
2023/09/18 00:35:40;;;;;;;19.48;17.48;;;;;;;16.67;76.32;95276.97;5054220;28;20021;-76
2023/09/18 00:38:07;;;;;;;20.35;18.27;;;;;;;16.56;76.30;95274.59;5053821;28;20039;-76
2023/09/18 00:40:32;;;;;;;20.75;18.63;;;;;;;16.43;76.83;95273.19;5070780;28;20486;-76
2023/09/18 00:42:58;;;;;;;19.35;17.45;;;;;;;16.54;76.81;95267.69;5037098;28;20133;-76
2023/09/18 00:45:24;;;;;;;19.65;17.73;;;;;;;16.42;76.85;95278.59;5054145;28;20032;-76
2023/09/18 00:47:50;;;;;;;20.48;17.65;;;;;;;16.47;76.15;95263.22;5053826;28;20113;-75
2023/09/18 00:50:16;;;;;;;18.77;16.83;;;;;;;16.50;76.33;95279.47;5071699;28;20140;-76
2023/09/18 00:52:41;;;;;;;19.33;17.27;;;;;;;16.59;75.89;95269.06;5053598;28;20032;-76
2023/09/18 00:55:07;;;;;;;19.42;17.27;;;;;;;16.62;76.10;95274.81;5037204;28;20115;-76
2023/09/18 00:57:32;;;;;;;20.00;16.92;;;;;;;16.62;75.65;95281.84;5070609;28;20494;-76
2023/09/18 00:59:58;;;;;;;17.60;15.77;;;;;;;16.69;75.37;95280.28;5053436;28;20051;-76
2023/09/18 01:02:23;;;;;;;18.42;16.50;;;;;;;16.61;75.72;95277.59;5053700;28;20032;-76
2023/09/18 01:04:49;;;;;;;19.58;16.27;;;;;;;16.77;74.74;95279.53;5053014;28;20044;-76
2023/09/18 01:07:15;;;;;;;18.02;16.13;;;;;;;16.65;75.10;95274.50;5037186;28;20033;-76
2023/09/18 01:09:40;;;;;;;18.08;16.20;;;;;;;16.62;76.31;95282.69;5036995;28;20119;-76
2023/09/18 01:12:19;;;;;;;16.70;14.98;;;;;;;16.46;75.65;95272.06;5071384;28;20119;-75
2023/09/18 01:15:13;;;;;;;16.48;14.73;;;;;;;16.67;74.91;95292.72;5038590;28;20469;-76
2023/09/18 01:17:38;;;;;;;17.75;15.27;;;;;;;16.71;74.55;95292.25;5033238;28;20097;-76
2023/09/18 01:20:05;;;;;;;16.45;14.75;;;;;;;16.77;74.69;95288.25;5053460;28;20066;-76
2023/09/18 01:22:31;;;;;;;16.98;14.85;;;;;;;16.84;74.45;95288.44;5037376;28;20024;-76
2023/09/18 01:24:56;;;;;;;18.00;15.52;;;;;;;16.98;74.42;95286.06;5036696;28;20059;-76
2023/09/18 01:27:22;;;;;;;17.15;15.18;;;;;;;16.90;74.42;95283.38;5037012;28;20406;-76
2023/09/18 01:29:49;;;;;;;18.10;15.40;;;;;;;17.09;73.58;95281.53;5053172;28;20028;-75
2023/09/18 01:32:14;;;;;;;19.58;16.55;;;;;;;17.02;74.56;95275.25;5070301;28;20064;-76
2023/09/18 01:34:48;;;;;;;18.25;16.35;;;;;;;17.08;74.39;95280.72;5036742;28;20029;-76
2023/09/18 01:37:15;;;;;;;20.42;18.27;;;;;;;17.14;74.86;95282.72;5053506;28;20044;-75
2023/09/18 01:39:40;;;;;;;18.23;16.35;;;;;;;17.16;74.59;95282.53;5053435;28;20108;-76
2023/09/18 01:42:06;;;;;;;17.73;15.82;;;;;;;17.20;74.36;95287.34;5053423;28;20139;-76
2023/09/18 01:44:35;;;;;;;20.50;18.40;;;;;;;17.20;74.58;95287.34;5053303;28;20520;-76
2023/09/18 01:47:02;;;;;;;19.20;17.30;;;;;;;17.19;74.41;95277.81;5069864;28;20060;-75
2023/09/18 01:49:29;;;;;;;19.20;17.30;;;;;;;17.20;74.62;95289.16;5036216;28;20068;-76
2023/09/18 01:51:55;;;;;;;19.23;16.58;;;;;;;17.37;74.03;95295.31;5053374;28;20090;-76
2023/09/18 01:54:21;;;;;;;17.88;16.02;;;;;;;17.32;74.29;95290.50;5036429;28;20028;-76
2023/09/18 01:56:46;;;;;;;16.95;15.15;;;;;;;17.39;72.94;95291.53;5036279;28;20033;-76
2023/09/18 01:59:11;;;;;;;16.33;14.63;;;;;;;17.12;73.61;95270.72;5053152;28;20047;-76
2023/09/18 02:01:37;;;;;;;16.00;14.30;;;;;;;17.02;73.95;95262.13;5053024;28;20032;-76
2023/09/18 02:04:04;;;;;;;16.35;14.05;;;;;;;17.37;72.96;95290.88;5036362;28;20028;-76
2023/09/18 02:06:30;;;;;;;17.85;15.20;;;;;;;17.07;73.81;95273.81;5069598;28;20418;-76
2023/09/18 02:08:55;;;;;;;16.48;14.70;;;;;;;17.20;73.59;95299.66;5036253;28;20071;-76
2023/09/18 02:11:21;;;;;;;18.15;14.90;;;;;;;17.10;74.05;95305.00;5052851;28;20044;-76
2023/09/18 02:13:46;;;;;;;15.93;14.27;;;;;;;17.11;74.19;95298.78;5036440;28;20475;-76
2023/09/18 02:16:12;;;;;;;15.98;14.27;;;;;;;16.97;74.68;95304.59;5070679;28;20028;-76
2023/09/18 02:18:37;;;;;;;17.35;14.18;;;;;;;17.07;73.97;95297.44;5073823;28;20020;-76
2023/09/18 02:21:02;;;;;;;15.95;14.35;;;;;;;17.04;74.80;95302.16;5056712;28;20035;-76
2023/09/18 02:23:28;;;;;;;15.88;14.27;;;;;;;16.93;74.72;95298.00;5056931;28;20043;-76
2023/09/18 02:26:00;;;;;;;17.30;15.35;;;;;;;16.94;75.10;95304.91;5073269;28;20098;-76
2023/09/18 02:28:25;;;;;;;16.42;14.30;;;;;;;16.97;74.21;95294.94;5040292;28;20032;-76
2023/09/18 02:30:51;;;;;;;17.75;15.85;;;;;;;17.11;74.51;95300.59;5073476;28;20032;-77
2023/09/18 02:33:17;;;;;;;16.77;14.35;;;;;;;16.83;75.09;95287.63;5056451;28;20123;-76
2023/09/18 02:35:45;;;;;;;14.43;12.93;;;;;;;16.89;74.93;95289.63;5056708;28;20506;-76
2023/09/18 02:38:10;;;;;;;15.40;13.80;;;;;;;16.84;75.08;95283.19;5057104;28;20540;-76
2023/09/18 02:40:36;;;;;;;14.77;13.30;;;;;;;16.82;75.14;95299.06;5056561;28;20032;-76
2023/09/18 02:43:02;;;;;;;16.63;14.93;;;;;;;16.85;74.95;95288.28;5056652;28;20032;-76
2023/09/18 02:45:27;;;;;;;15.10;13.50;;;;;;;16.98;74.38;95283.44;5039580;28;20036;-76
2023/09/18 02:47:53;;;;;;;15.60;14.00;;;;;;;16.89;74.90;95292.25;5039708;28;20035;-76
2023/09/18 02:50:19;;;;;;;16.67;14.85;;;;;;;16.83;75.65;95292.06;5056287;28;20048;-76
2023/09/18 02:52:44;;;;;;;16.45;14.75;;;;;;;16.83;75.59;95294.69;5056118;28;20033;-76
2023/09/18 02:55:10;;;;;;;19.60;15.93;;;;;;;16.74;75.83;95288.50;5056345;28;20056;-76
2023/09/18 02:57:35;;;;;;;17.65;15.15;;;;;;;16.69;75.94;95281.09;5039613;28;20029;-76
2023/09/18 03:00:01;;;;;;;17.48;15.68;;;;;;;16.78;75.49;95284.63;5072653;28;20555;-76
2023/09/18 03:02:26;;;;;;;17.45;15.00;;;;;;;16.85;74.82;95290.88;5039490;28;20031;-76
2023/09/18 03:04:52;;;;;;;15.70;14.00;;;;;;;16.73;74.04;95290.28;5072515;28;20114;-76
2023/09/18 03:07:17;;;;;;;15.30;13.63;;;;;;;16.66;74.43;95291.06;5056296;28;20115;-76
2023/09/18 03:09:43;;;;;;;18.38;14.18;;;;;;;16.79;74.93;95299.38;5039457;28;20032;-76
2023/09/18 03:12:08;;;;;;;17.00;15.20;;;;;;;16.70;75.38;95295.84;5055818;28;20033;-76
2023/09/18 03:14:34;;;;;;;17.27;14.95;;;;;;;16.74;74.79;95291.13;5039043;28;20044;-76
2023/09/18 03:16:59;;;;;;;18.00;15.43;;;;;;;16.75;74.81;95303.28;5039472;28;20036;-76
2023/09/18 03:19:26;;;;;;;17.95;14.98;;;;;;;16.69;74.98;95296.03;5055793;28;20149;-76
2023/09/18 03:21:52;;;;;;;16.73;14.70;;;;;;;16.72;74.65;95293.91;5072370;28;20063;-76
2023/09/18 03:24:17;;;;;;;16.88;15.18;;;;;;;16.57;74.41;95266.56;5038757;28;20058;-76
2023/09/18 03:26:43;;;;;;;16.75;14.95;;;;;;;16.45;74.88;95273.88;5055979;28;20040;-76
2023/09/18 03:29:08;;;;;;;18.92;14.55;;;;;;;16.46;75.08;95280.75;5071423;28;20039;-76
2023/09/18 03:31:34;;;;;;;18.58;15.18;;;;;;;16.39;75.28;95281.53;5072252;28;20036;-76
2023/09/18 03:33:59;;;;;;;18.17;15.25;;;;;;;16.33;75.38;95274.25;5038755;28;20418;-76
2023/09/18 03:36:25;;;;;;;19.60;15.85;;;;;;;16.18;76.33;95279.19;5055478;28;20056;-76
2023/09/18 03:38:50;;;;;;;20.33;16.65;;;;;;;16.08;76.92;95277.47;5055451;28;20033;-76
2023/09/18 03:41:16;;;;;;;19.05;16.10;;;;;;;15.88;77.44;95249.78;5038756;28;20031;-76
2023/09/18 03:43:41;;;;;;;18.65;14.95;;;;;;;16.03;77.35;95266.63;5055082;28;20024;-76
2023/09/18 03:46:07;;;;;;;19.17;15.95;;;;;;;16.03;77.73;95273.66;5071940;28;20490;-76
2023/09/18 03:48:37;;;;;;;19.55;15.90;;;;;;;15.93;77.85;95259.81;5055431;28;20032;-76
2023/09/18 03:51:04;;;;;;;17.87;15.40;;;;;;;15.99;77.41;95272.28;5055939;28;20083;-76
2023/09/18 03:53:30;;;;;;;16.63;14.65;;;;;;;15.89;77.94;95275.00;5038200;28;20036;-75
2023/09/18 03:55:55;;;;;;;20.92;15.68;;;;;;;16.03;77.31;95281.53;5054906;28;20028;-76
2023/09/18 03:58:21;;;;;;;16.52;14.70;;;;;;;15.67;78.58;95283.25;5054792;28;20066;-76
2023/09/18 04:00:46;;;;;;;16.85;13.98;;;;;;;15.74;77.80;95279.94;5071927;28;20032;-76
2023/09/18 04:03:11;;;;;;;18.20;14.75;;;;;;;15.76;77.28;95277.16;5054463;28;20418;-76
2023/09/18 04:05:37;;;;;;;17.42;13.63;;;;;;;15.81;77.01;95280.97;5071731;28;20033;-76
2023/09/18 04:08:03;;;;;;;17.58;13.02;;;;;;;15.72;77.02;95276.63;5054808;28;20482;-76
2023/09/18 04:10:29;;;;;;;19.90;13.75;;;;;;;15.69;77.24;95278.72;5071567;28;20489;-76
2023/09/18 04:12:54;;;;;;;18.92;14.68;;;;;;;15.53;77.55;95261.81;5054403;28;20124;-76
2023/09/18 04:15:20;;;;;;;19.40;14.35;;;;;;;15.59;77.80;95271.69;5055139;28;20032;-76
2023/09/18 04:17:45;;;;;;;17.13;13.95;;;;;;;15.59;77.79;95269.06;5038041;28;20037;-76
2023/09/18 04:20:12;;;;;;;16.63;14.30;;;;;;;15.61;77.10;95261.91;5071484;28;20078;-76
2023/09/18 04:22:45;;;;;;;17.17;14.93;;;;;;;15.53;77.24;95256.56;5070735;28;20089;-76
2023/09/18 04:25:11;;;;;;;17.88;14.80;;;;;;;15.71;77.04;95274.13;5055025;28;20414;-75
2023/09/18 04:27:37;;;;;;;19.65;15.52;;;;;;;15.72;76.25;95265.34;5037883;28;20055;-77
2023/09/18 04:30:03;;;;;;;19.45;15.55;;;;;;;15.46;76.98;95268.63;5071181;28;20028;-76
2023/09/18 04:32:29;;;;;;;20.65;15.52;;;;;;;15.64;77.17;95284.34;5037601;28;20464;-75
2023/09/18 04:34:54;;;;;;;24.25;16.08;;;;;;;15.54;77.24;95279.16;5054244;28;20036;-76
2023/09/18 04:37:20;;;;;;;18.67;14.90;;;;;;;15.65;76.88;95270.28;5037773;28;20090;-76
2023/09/18 04:39:45;;;;;;;19.77;16.35;;;;;;;15.58;76.88;95270.06;5037695;28;20048;-76
2023/09/18 04:42:10;;;;;;;19.80;16.05;;;;;;;15.64;76.74;95285.19;5054008;28;20426;-76
2023/09/18 04:44:36;;;;;;;19.60;16.00;;;;;;;15.60;76.83;95277.75;5053916;28;20031;-76
2023/09/18 04:47:01;;;;;;;19.25;16.00;;;;;;;15.59;77.56;95278.72;5070788;28;20025;-76
2023/09/18 04:49:28;;;;;;;18.90;16.20;;;;;;;15.74;77.02;95286.94;5053677;28;20498;-76
2023/09/18 04:51:53;;;;;;;20.63;17.65;;;;;;;15.74;76.98;95282.56;5054125;28;20028;-76
2023/09/18 04:54:19;;;;;;;19.33;16.50;;;;;;;15.59;77.14;95292.63;5053528;28;20028;-76
2023/09/18 04:56:45;;;;;;;20.50;15.60;;;;;;;15.71;77.08;95289.84;5054060;28;20036;-76
2023/09/18 04:59:10;;;;;;;18.98;15.48;;;;;;;15.74;77.08;95286.94;5071901;28;20111;-76
2023/09/18 05:01:36;;;;;;;18.13;15.27;;;;;;;15.64;77.13;95271.25;5070400;28;20086;-76
2023/09/18 05:04:01;;;;;;;20.80;16.85;;;;;;;15.73;76.97;95277.44;5053453;28;20086;-76
2023/09/18 05:06:27;;;;;;;19.55;16.33;;;;;;;15.76;76.50;95266.66;5053892;28;20474;-76
2023/09/18 05:08:54;;;;;;;21.17;17.13;;;;;;;15.67;76.89;95270.97;5070237;28;20036;-76
2023/09/18 05:11:19;;;;;;;19.17;16.27;;;;;;;15.85;77.19;95276.25;5037219;28;20021;-76
2023/09/18 05:13:45;;;;;;;18.60;16.02;;;;;;;16.15;76.65;95282.94;5036925;28;20044;-76
2023/09/18 05:16:10;;;;;;;20.05;16.02;;;;;;;16.29;75.84;95281.59;5053617;28;20062;-76
2023/09/18 05:18:37;;;;;;;19.00;15.90;;;;;;;16.64;75.20;95277.28;5070172;28;20390;-76
2023/09/18 05:21:04;;;;;;;19.33;15.90;;;;;;;16.95;73.96;95285.56;5053770;28;20044;-76
2023/09/18 05:23:30;;;;;;;20.77;15.98;;;;;;;17.24;73.09;95294.91;5053403;28;20031;-76
2023/09/18 05:25:55;;;;;;;18.63;15.00;;;;;;;17.10;73.38;95299.75;5036987;28;20033;-76
2023/09/18 05:28:21;;;;;;;19.60;16.65;;;;;;;17.31;72.45;95296.75;5053390;28;20029;-77
2023/09/18 05:30:46;;;;;;;17.75;15.82;;;;;;;17.47;72.35;95295.16;5053190;28;20517;-75
2023/09/18 05:33:13;;;;;;;20.05;15.50;;;;;;;17.45;72.47;95294.53;5036633;28;20468;-75
2023/09/18 05:35:43;;;;;;;18.27;15.70;;;;;;;17.30;73.05;95278.50;5053669;28;20028;-75
2023/09/18 05:38:15;;;;;;;19.47;15.70;;;;;;;17.38;72.49;95291.69;5036904;28;20033;-75
2023/09/18 05:40:41;;;;;;;20.48;16.13;;;;;;;17.71;70.99;95283.94;5069974;28;20035;-75
2023/09/18 05:43:07;;;;;;;21.90;15.35;;;;;;;17.98;69.93;95288.16;5053356;28;20033;-76
2023/09/18 05:45:33;;;;;;;24.83;15.98;;;;;;;18.41;68.57;95294.13;5071087;28;20030;-76
2023/09/18 05:48:03;;;;;;;19.30;15.50;;;;;;;18.56;68.53;95284.59;5053439;28;20025;-76
2023/09/18 05:50:30;;;;;;;22.85;15.80;;;;;;;18.85;67.94;95285.94;5070793;28;20462;-76
2023/09/18 05:52:59;;;;;;;17.98;14.10;;;;;;;19.23;66.44;95294.91;5053314;28;20044;-76
2023/09/18 05:55:25;;;;;;;19.27;14.40;;;;;;;19.13;65.01;95295.09;5071168;28;20032;-76
2023/09/18 05:57:50;;;;;;;15.93;13.30;;;;;;;18.93;65.30;95283.28;5053163;28;20055;-75
2023/09/18 06:00:17;;;;;;;15.27;13.50;;;;;;;19.00;65.49;95292.16;5052986;28;20078;-76
2023/09/18 06:02:43;;;;;;;19.33;14.48;;;;;;;19.12;66.04;95288.19;5053266;28;20100;-76
2023/09/18 06:05:11;;;;;;;17.80;13.98;;;;;;;19.18;65.50;95287.50;5053009;28;20108;-75
2023/09/18 06:07:36;;;;;;;15.85;14.15;;;;;;;19.46;64.82;95292.38;5069917;28;20054;-76
2023/09/18 06:10:02;;;;;;;18.00;13.93;;;;;;;19.33;64.93;95295.50;5053349;28;20479;-76
2023/09/18 06:12:27;;;;;;;16.00;14.30;;;;;;;19.31;65.51;95299.34;5069768;28;20033;-76
2023/09/18 06:14:53;;;;;;;15.38;13.35;;;;;;;19.61;65.40;95298.56;5050471;28;20033;-76
2023/09/18 06:17:18;;;;;;;14.27;12.52;;;;;;;19.95;62.72;95284.28;5049902;28;20418;-76
2023/09/18 06:19:45;;;;;;;14.00;12.32;;;;;;;19.91;62.97;95290.88;5050726;28;20230;-76
2023/09/18 06:22:10;;;;;;;12.93;11.63;;;;;;;20.00;62.83;95289.00;5069537;28;20032;-75
2023/09/18 06:24:36;;;;;;;12.95;11.65;;;;;;;19.89;62.39;95300.75;5036155;28;20033;-76
2023/09/18 06:27:04;;;;;;;13.25;11.85;;;;;;;19.83;62.70;95294.38;5053222;28;20032;-75
2023/09/18 06:29:29;;;;;;;13.52;12.07;;;;;;;19.99;62.97;95290.84;5053257;28;20507;-76
2023/09/18 06:31:55;;;;;;;14.85;11.77;;;;;;;19.97;62.34;95297.28;5069447;28;20089;-75
2023/09/18 06:34:20;;;;;;;14.68;11.80;;;;;;;19.97;62.42;95298.09;5052864;28;20422;-76
2023/09/18 06:36:46;;;;;;;14.68;12.25;;;;;;;20.16;62.19;95296.81;5053022;28;20024;-76
2023/09/18 06:39:11;;;;;;;14.27;10.70;;;;;;;20.46;60.95;95300.41;5052996;28;20037;-76
2023/09/18 06:41:37;;;;;;;13.57;12.18;;;;;;;20.42;60.41;95293.03;5071363;28;20513;-76
2023/09/18 06:44:02;;;;;;;14.77;12.52;;;;;;;20.39;60.26;95291.56;5069723;28;20041;-76
2023/09/18 06:46:28;;;;;;;12.93;11.57;;;;;;;20.30;60.13;95288.16;5052747;28;20039;-76
2023/09/18 06:48:54;;;;;;;13.77;12.27;;;;;;;20.64;59.71;95294.03;5052741;28;20040;-76
2023/09/18 06:51:19;;;;;;;12.13;10.73;;;;;;;20.47;59.36;95296.78;5052241;28;20044;-76
2023/09/18 06:53:45;;;;;;;13.32;11.63;;;;;;;20.83;58.51;95287.47;5035662;28;20043;-76
2023/09/18 06:56:12;;;;;;;12.80;11.45;;;;;;;20.52;59.25;95291.78;5052521;28;20442;-76
2023/09/18 06:58:37;;;;;;;12.65;11.00;;;;;;;20.64;58.63;95304.59;5052437;28;20036;-76
2023/09/18 07:01:06;;;;;;;14.95;12.32;;;;;;;20.70;58.56;95299.44;5052717;28;20020;-76
2023/09/18 07:03:34;;;;;;;13.27;11.68;;;;;;;20.54;59.17;95302.22;5070805;28;20036;-76
2023/09/18 07:06:00;;;;;;;12.98;11.57;;;;;;;20.49;59.35;95291.34;5072835;28;20199;-76
2023/09/18 07:08:25;;;;;;;12.73;11.32;;;;;;;20.60;59.29;95309.41;5055988;28;20032;-76
2023/09/18 07:10:51;;;;;;;13.13;11.48;;;;;;;20.46;59.43;95296.97;5039610;28;20037;-76
2023/09/18 07:13:16;;;;;;;12.98;10.95;;;;;;;20.40;59.74;95298.50;5039486;28;20102;-76
2023/09/18 07:15:42;;;;;;;12.63;11.15;;;;;;;20.74;58.95;95297.28;5055988;28;20021;-76
2023/09/18 07:18:09;;;;;;;13.32;11.23;;;;;;;20.71;58.91;95282.59;5073547;28;20029;-76
2023/09/18 07:20:36;;;;;;;12.80;11.23;;;;;;;20.64;58.83;95288.75;5072789;28;20028;-76
2023/09/18 07:23:01;;;;;;;14.27;11.05;;;;;;;20.70;58.88;95302.09;5055993;28;20043;-77
2023/09/18 07:25:27;;;;;;;13.35;11.77;;;;;;;20.40;59.53;95301.13;5055757;28;20028;-76
2023/09/18 07:27:52;;;;;;;13.95;12.55;;;;;;;20.25;60.55;95297.59;5072291;28;20032;-76
2023/09/18 07:30:19;;;;;;;13.55;12.00;;;;;;;20.03;59.75;95293.94;5072535;28;20031;-76
2023/09/18 07:32:44;;;;;;;13.82;11.88;;;;;;;20.09;60.08;95304.63;5055757;28;20043;-76
2023/09/18 07:35:10;;;;;;;14.32;11.95;;;;;;;20.06;60.01;95294.44;5072295;28;20438;-76
2023/09/18 07:37:36;;;;;;;13.07;11.38;;;;;;;20.21;58.74;95305.03;5072177;28;20510;-76
2023/09/18 07:40:03;;;;;;;16.77;12.07;;;;;;;20.26;58.49;95265.78;5055725;28;20020;-76
2023/09/18 07:42:29;;;;;;;15.95;13.48;;;;;;;20.34;59.69;95298.34;5039195;28;20036;-76
2023/09/18 07:44:54;;;;;;;14.57;12.20;;;;;;;20.55;58.94;95310.94;5055488;28;20076;-76
2023/09/18 07:47:20;;;;;;;14.80;12.85;;;;;;;20.33;60.33;95299.38;5055178;28;20024;-75
2023/09/18 07:49:46;;;;;;;16.23;12.02;;;;;;;20.07;60.30;95303.97;5038773;28;20052;-76
2023/09/18 07:52:12;;;;;;;13.95;12.02;;;;;;;20.30;59.59;95305.81;5072070;28;20025;-76
2023/09/18 07:54:37;;;;;;;13.05;11.57;;;;;;;20.32;58.86;95306.47;5072103;28;20036;-76
2023/09/18 07:57:03;;;;;;;13.25;11.85;;;;;;;20.50;59.00;95298.25;5054812;28;20025;-76
2023/09/18 07:59:29;;;;;;;13.02;11.73;;;;;;;21.16;57.70;95303.81;5038458;28;20105;-75
2023/09/18 08:01:54;;;;;;;11.13;9.93;;;;;;;21.26;55.93;95299.09;5055675;28;20411;-75
2023/09/18 08:04:20;;;;;;;12.15;10.88;;;;;;;21.12;56.52;95297.25;5055168;28;20048;-76
2023/09/18 08:06:47;;;;;;;12.02;10.75;;;;;;;21.56;55.64;95302.59;5071547;28;20241;-76
2023/09/18 08:09:15;;;;;;;13.57;12.13;;;;;;;21.52;55.57;95293.38;5038624;28;20032;-76
2023/09/18 08:11:42;;;;;;;13.82;12.43;;;;;;;21.54;55.67;95290.56;5055422;28;20032;-76
2023/09/18 08:14:08;;;;;;;12.32;9.75;;;;;;;21.78;53.98;95287.59;5071350;28;20082;-76
2023/09/18 08:16:34;;;;;;;13.05;10.32;;;;;;;21.99;53.21;95288.69;5054795;28;20066;-75
2023/09/18 08:19:01;;;;;;;13.63;9.25;;;;;;;22.10;52.67;95285.53;5054804;28;20036;-76
2023/09/18 08:21:28;;;;;;;11.07;9.15;;;;;;;22.10;53.11;95282.91;5071646;28;20036;-76
2023/09/18 08:23:54;;;;;;;11.60;10.35;;;;;;;21.91;53.00;95289.59;5055187;28;20041;-75
2023/09/18 08:26:20;;;;;;;10.38;9.02;;;;;;;21.97;53.17;95285.38;5070919;28;20036;-76
2023/09/18 08:28:46;;;;;;;12.65;10.55;;;;;;;21.89;53.82;95285.50;5054903;28;20032;-76
2023/09/18 08:31:11;;;;;;;13.80;11.07;;;;;;;21.76;55.32;95267.66;5054664;28;20082;-76
2023/09/18 08:33:37;;;;;;;10.63;9.52;;;;;;;22.07;52.81;95270.03;5054537;28;20024;-77
2023/09/18 08:36:02;;;;;;;11.88;9.18;;;;;;;22.11;53.06;95279.25;5071048;28;20039;-76
2023/09/18 08:38:28;;;;;;;10.98;9.88;;;;;;;22.22;53.43;95257.59;5071094;28;20031;-77
2023/09/18 08:40:54;;;;;;;12.20;9.95;;;;;;;22.05;53.37;95270.22;5054603;28;20149;-77
2023/09/18 08:43:20;;;;;;;10.23;9.20;;;;;;;21.68;53.89;95271.22;5054364;28;20063;-76
2023/09/18 08:45:55;;;;;;;11.32;9.98;;;;;;;21.56;54.46;95275.31;5054113;28;20025;-77
2023/09/18 08:48:21;;;;;;;11.95;10.32;;;;;;;21.53;54.92;95262.47;5053911;28;20059;-77
2023/09/18 08:50:47;;;;;;;13.32;10.38;;;;;;;21.71;54.01;95265.56;5037648;28;20116;-76
2023/09/18 08:53:12;;;;;;;13.25;9.80;;;;;;;21.76;53.97;95265.84;5054304;28;20069;-76
2023/09/18 08:55:38;;;;;;;11.35;9.63;;;;;;;21.66;53.98;95262.66;5054315;28;20024;-77
2023/09/18 08:58:07;;;;;;;11.80;9.80;;;;;;;21.52;54.39;95252.91;5070296;28;20040;-76
2023/09/18 09:00:32;;;;;;;11.85;10.25;;;;;;;21.91;54.30;95260.50;5054194;28;20409;-76
2023/09/18 09:02:59;;;;;;;11.73;10.10;;;;;;;21.98;53.87;95260.56;5054084;28;20066;-76
2023/09/18 09:05:24;;;;;;;12.80;9.82;;;;;;;22.00;53.44;95256.72;5070760;28;20437;-76
2023/09/18 09:07:50;;;;;;;9.82;8.48;;;;;;;21.77;53.96;95258.72;5070425;28;20029;-76
2023/09/18 09:10:16;;;;;;;11.50;9.27;;;;;;;21.93;53.60;95244.47;5054146;28;20024;-76
2023/09/18 09:12:55;;;;;;;9.48;8.45;;;;;;;22.51;51.21;95256.69;5053901;28;20032;-76
2023/09/18 09:15:27;;;;;;;9.88;8.70;;;;;;;22.53;51.12;95248.53;5054999;28;20592;-76
2023/09/18 09:18:05;;;;;;;12.43;9.43;;;;;;;22.43;52.00;95248.88;5054177;28;20040;-76
2023/09/18 09:20:30;;;;;;;11.27;9.02;;;;;;;22.23;52.06;95232.81;5037520;28;20035;-76
2023/09/18 09:23:03;;;;;;;10.45;9.00;;;;;;;22.24;52.69;95252.94;5070244;28;20037;-76
2023/09/18 09:25:31;;;;;;;9.70;8.68;;;;;;;22.42;52.34;95247.22;5053492;28;20051;-76
2023/09/18 09:27:57;;;;;;;11.65;8.32;;;;;;;22.65;50.90;95239.09;5070330;28;20040;-76
2023/09/18 09:30:24;;;;;;;9.32;8.35;;;;;;;22.82;50.30;95249.41;5053747;28;20024;-77
2023/09/18 09:32:51;;;;;;;13.32;8.77;;;;;;;22.66;50.64;95242.53;5053327;28;20045;-76
2023/09/18 09:35:27;;;;;;;10.05;7.72;;;;;;;22.70;50.29;95238.47;5053476;28;20146;-76
2023/09/18 09:37:55;;;;;;;9.05;7.88;;;;;;;22.85;49.49;95235.75;5036701;28;20037;-76
2023/09/18 09:40:21;;;;;;;8.77;7.70;;;;;;;22.85;49.93;95241.06;5071495;28;20033;-76
2023/09/18 09:42:47;;;;;;;8.43;7.15;;;;;;;23.01;48.45;95232.00;5036568;28;20036;-76
2023/09/18 09:45:15;;;;;;;10.90;8.68;;;;;;;22.93;49.99;95235.63;5053325;28;20033;-76
2023/09/18 09:47:40;;;;;;;9.20;8.02;;;;;;;22.63;50.31;95217.25;5053448;28;20028;-76
2023/09/18 09:50:16;;;;;;;9.27;8.32;;;;;;;22.79;50.93;95220.63;5069996;28;20052;-77
2023/09/18 09:52:48;;;;;;;9.05;7.90;;;;;;;22.81;50.18;95213.31;5070052;28;20016;-76
2023/09/18 09:55:24;;;;;;;9.27;7.68;;;;;;;22.96;49.61;95214.06;5036561;28;20499;-76
2023/09/18 09:58:03;;;;;;;9.75;7.13;;;;;;;22.95;48.94;95212.38;5069645;28;20102;-75
2023/09/18 10:00:49;;;;;;;7.95;6.82;;;;;;;22.95;48.09;95215.88;5053519;28;20037;-77
2023/09/18 10:03:19;;;;;;;9.05;7.50;;;;;;;22.96;48.55;95198.19;5069850;28;20115;-76
2023/09/18 10:05:45;;;;;;;10.10;7.85;;;;;;;23.06;48.77;95197.81;5069954;28;20036;-76
2023/09/18 10:08:30;;;;;;;10.73;7.13;;;;;;;23.17;48.86;95215.81;5036282;28;20052;-76
2023/09/18 10:11:00;;;;;;;8.30;6.72;;;;;;;23.21;47.22;95209.13;5053468;28;20028;-76
2023/09/18 10:13:53;;;;;;;8.33;7.43;;;;;;;23.18;48.82;95210.34;5053258;28;20131;-76
2023/09/18 10:16:21;;;;;;;8.07;6.57;;;;;;;23.08;47.00;95209.03;5069722;28;20115;-77
2023/09/18 10:18:57;;;;;;;8.48;5.88;;;;;;;23.10;46.76;95210.50;5070337;28;20029;-76
2023/09/18 10:21:35;;;;;;;7.13;6.05;;;;;;;23.11;46.80;95206.81;5069779;28;20082;-76
2023/09/18 10:24:20;;;;;;;8.90;5.80;;;;;;;23.11;46.41;95204.16;5054232;28;20495;-76
2023/09/18 10:26:55;;;;;;;7.63;5.65;;;;;;;22.96;46.65;95203.47;5071272;28;20871;-76
2023/09/18 10:29:20;;;;;;;6.75;5.90;;;;;;;23.05;46.96;95202.31;5052877;28;20033;-76
2023/09/18 10:31:46;;;;;;;7.72;5.97;;;;;;;23.01;47.09;95198.38;5036605;28;20028;-76
2023/09/18 10:34:12;;;;;;;7.95;5.50;;;;;;;23.02;45.96;95189.44;5069374;28;20033;-76
2023/09/18 10:36:39;;;;;;;7.88;5.95;;;;;;;23.24;46.80;95186.72;5069991;28;20556;-76
2023/09/18 10:39:08;;;;;;;8.02;5.32;;;;;;;23.17;45.68;95184.03;5073280;28;20032;-76
2023/09/18 10:41:34;;;;;;;7.63;5.93;;;;;;;23.37;46.03;95181.47;5073543;28;20025;-76
2023/09/18 10:44:00;;;;;;;6.05;5.28;;;;;;;23.29;45.61;95173.66;5073100;28;20127;-77
2023/09/18 10:46:26;;;;;;;5.70;5.10;;;;;;;23.41;45.56;95175.56;5056828;28;20024;-76
2023/09/18 10:48:52;;;;;;;7.78;5.75;;;;;;;23.42;45.84;95171.91;5073260;28;20036;-76
2023/09/18 10:51:21;;;;;;;6.20;5.60;;;;;;;23.60;46.19;95168.72;5056658;28;20059;-76
2023/09/18 10:53:50;;;;;;;9.93;5.50;;;;;;;23.71;45.72;95142.66;5056440;28;20736;-77
2023/09/18 10:56:18;;;;;;;5.78;5.22;;;;;;;23.69;43.75;95163.25;5072915;28;20036;-76
2023/09/18 10:58:44;;;;;;;4.85;4.38;;;;;;;23.69;43.72;95155.28;5056376;28;20039;-76
2023/09/18 11:01:12;;;;;;;5.88;5.28;;;;;;;23.59;44.26;95164.41;5056241;28;20029;-76
2023/09/18 11:03:38;;;;;;;6.65;4.82;;;;;;;23.57;45.04;95155.06;5072981;28;20055;-76
2023/09/18 11:06:09;;;;;;;8.57;4.95;;;;;;;23.78;44.82;95151.44;5039366;28;20487;-77
2023/09/18 11:08:48;;;;;;;5.85;5.20;;;;;;;23.71;44.75;95145.31;5072920;28;20025;-76
2023/09/18 11:11:16;;;;;;;7.13;5.27;;;;;;;23.69;44.91;95152.63;5056442;28;20032;-76
2023/09/18 11:13:43;;;;;;;6.40;4.55;;;;;;;23.96;43.84;95150.84;5039820;28;20796;-76
2023/09/18 11:16:17;;;;;;;7.28;4.82;;;;;;;23.78;43.66;95140.84;5056366;28;20044;-76
2023/09/18 11:18:42;;;;;;;5.60;4.65;;;;;;;23.82;43.99;95124.34;5055966;28;20109;-76